createdAt,value
2023-04-27T00:01:13.581Z,9.80
2023-04-27T00:03:41.434Z,9.80
2023-04-27T00:06:09.568Z,9.70
2023-04-27T00:08:36.429Z,9.70
2023-04-27T00:11:03.242Z,9.70
2023-04-27T00:13:29.986Z,9.60
2023-04-27T00:15:56.782Z,9.60
2023-04-27T00:18:23.493Z,9.60
2023-04-27T00:20:50.246Z,9.60
2023-04-27T00:23:17.025Z,9.50
2023-04-27T00:25:43.819Z,9.50
2023-04-27T00:28:10.516Z,9.50
2023-04-27T00:30:37.262Z,9.50
2023-04-27T00:33:04.061Z,9.40
2023-04-27T00:35:32.861Z,9.40
2023-04-27T00:37:59.691Z,9.40
2023-04-27T00:40:26.915Z,9.30
2023-04-27T00:42:53.665Z,9.30
2023-04-27T00:45:20.551Z,9.30
2023-04-27T00:47:47.454Z,9.20
2023-04-27T00:50:14.929Z,9.30
2023-04-27T00:52:42.120Z,9.20
2023-04-27T00:55:09.490Z,9.20
2023-04-27T00:57:36.177Z,9.20
2023-04-27T01:00:07.415Z,9.20
2023-04-27T01:02:36.014Z,9.10
2023-04-27T01:05:03.720Z,9.10
2023-04-27T01:07:30.414Z,9.10
2023-04-27T01:09:58.090Z,9.10
2023-04-27T01:12:25.033Z,9.00
2023-04-27T01:14:51.703Z,9.00
2023-04-27T01:17:18.388Z,9.00
2023-04-27T01:19:45.157Z,8.90
2023-04-27T01:22:12.057Z,8.90
2023-04-27T01:24:38.777Z,8.90
2023-04-27T01:27:05.707Z,8.80
2023-04-27T01:29:32.686Z,8.80
2023-04-27T01:31:59.408Z,8.80
2023-04-27T01:34:26.202Z,8.80
2023-04-27T01:36:52.792Z,8.70
2023-04-27T01:39:21.456Z,8.70
2023-04-27T01:41:48.268Z,8.60
2023-04-27T01:44:14.918Z,8.60
2023-04-27T01:46:41.852Z,8.60
2023-04-27T01:49:08.727Z,8.60
2023-04-27T01:51:35.633Z,8.50
2023-04-27T01:54:02.301Z,8.50
2023-04-27T01:56:28.988Z,8.50
2023-04-27T01:58:56.028Z,8.40
2023-04-27T02:01:22.938Z,8.40
2023-04-27T02:03:49.991Z,8.40
2023-04-27T02:06:16.786Z,8.40
2023-04-27T02:08:43.460Z,8.30
2023-04-27T02:11:10.228Z,8.30
2023-04-27T02:13:37.666Z,8.30
2023-04-27T02:16:05.227Z,8.20
2023-04-27T02:18:33.664Z,8.20
2023-04-27T02:21:00.723Z,8.20
2023-04-27T02:23:27.552Z,8.10
2023-04-27T02:25:54.207Z,8.10
2023-04-27T02:28:20.900Z,8.00
2023-04-27T02:30:48.050Z,8.00
2023-04-27T02:33:14.740Z,8.00
2023-04-27T02:35:41.437Z,8.00
2023-04-27T02:38:08.148Z,7.90
2023-04-27T02:40:37.608Z,7.90
2023-04-27T02:43:06.445Z,7.80
2023-04-27T02:45:37.446Z,7.80
2023-04-27T02:48:05.996Z,7.80
2023-04-27T02:50:34.104Z,7.80
2023-04-27T02:53:01.207Z,7.70
2023-04-27T02:55:28.918Z,7.70
2023-04-27T02:57:55.767Z,7.70
2023-04-27T03:00:22.924Z,7.70
2023-04-27T03:02:49.674Z,7.60
2023-04-27T03:05:16.827Z,7.60
2023-04-27T03:07:43.482Z,7.60
2023-04-27T03:10:10.878Z,7.60
2023-04-27T03:12:37.624Z,7.60
2023-04-27T03:15:04.563Z,7.60
2023-04-27T03:17:31.394Z,7.60
2023-04-27T03:19:58.057Z,7.50
2023-04-27T03:22:24.702Z,7.50
2023-04-27T03:24:51.329Z,7.50
2023-04-27T03:27:18.012Z,7.50
2023-04-27T03:29:44.784Z,7.40
2023-04-27T03:32:11.601Z,7.40
2023-04-27T03:34:38.434Z,7.40
2023-04-27T03:37:06.290Z,7.40
2023-04-27T03:39:36.899Z,7.40
2023-04-27T03:42:04.243Z,7.30
2023-04-27T03:44:36.206Z,7.30
2023-04-27T03:47:03.607Z,7.30
2023-04-27T03:49:30.539Z,7.30
2023-04-27T03:51:57.311Z,7.20
2023-04-27T03:54:23.929Z,7.20
2023-04-27T03:56:50.597Z,7.40
2023-04-27T03:59:18.545Z,7.20
2023-04-27T04:01:49.309Z,7.20
2023-04-27T04:04:16.761Z,7.10
2023-04-27T04:06:43.536Z,7.10
2023-04-27T04:09:12.704Z,7.10
2023-04-27T04:11:40.197Z,7.10
2023-04-27T04:14:09.427Z,7.10
2023-04-27T04:16:36.175Z,7.00
2023-04-27T04:19:03.030Z,7.00
2023-04-27T04:21:29.688Z,7.00
2023-04-27T04:23:57.126Z,7.00
2023-04-27T04:26:24.772Z,7.00
2023-04-27T04:28:52.283Z,7.00
2023-04-27T04:31:19.132Z,6.90
2023-04-27T04:33:45.985Z,6.90
2023-04-27T04:36:15.199Z,6.90
2023-04-27T04:38:41.865Z,6.90
2023-04-27T04:41:10.430Z,6.90
2023-04-27T04:43:37.402Z,6.90
2023-04-27T04:46:07.126Z,6.90
2023-04-27T04:48:34.653Z,6.90
2023-04-27T04:51:01.379Z,6.90
2023-04-27T04:53:29.342Z,6.90
2023-04-27T04:55:56.414Z,6.90
2023-04-27T04:58:23.068Z,6.90
2023-04-27T05:00:49.683Z,6.90
2023-04-27T05:03:16.701Z,6.90
2023-04-27T05:05:43.435Z,7.00
2023-04-27T05:08:10.052Z,7.00
2023-04-27T05:10:36.709Z,7.00
2023-04-27T05:13:05.265Z,7.00
2023-04-27T05:15:33.214Z,7.10
2023-04-27T05:17:59.949Z,7.10
2023-04-27T05:20:26.560Z,7.10
2023-04-27T05:22:53.195Z,7.10
2023-04-27T05:25:19.815Z,7.20
2023-04-27T05:27:46.456Z,7.20
2023-04-27T05:30:13.594Z,7.20
2023-04-27T05:32:40.325Z,7.30
2023-04-27T05:35:07.345Z,7.30
2023-04-27T05:37:34.034Z,7.40
2023-04-27T05:40:00.706Z,7.40
2023-04-27T05:42:27.380Z,7.50
2023-04-27T05:44:54.277Z,7.60
2023-04-27T05:47:21.407Z,7.60
2023-04-27T05:49:52.661Z,7.70
2023-04-27T05:52:20.127Z,7.70
2023-04-27T05:54:50.890Z,7.80
2023-04-27T05:57:17.565Z,7.90
2023-04-27T05:59:44.258Z,8.00
2023-04-27T06:02:11.016Z,8.00
2023-04-27T06:04:38.256Z,8.10
2023-04-27T06:07:10.230Z,8.20
2023-04-27T06:09:37.425Z,8.30
2023-04-27T06:12:05.645Z,8.30
2023-04-27T06:14:33.364Z,8.50
2023-04-27T06:17:00.277Z,8.50
2023-04-27T06:19:26.933Z,8.60
2023-04-27T06:21:55.031Z,8.60
2023-04-27T06:24:22.394Z,8.70
2023-04-27T06:26:52.068Z,8.80
2023-04-27T06:29:18.779Z,8.90
2023-04-27T06:31:45.535Z,9.00
2023-04-27T06:34:12.166Z,9.10
2023-04-27T06:36:38.862Z,9.30
2023-04-27T06:39:05.505Z,9.40
2023-04-27T06:41:33.709Z,9.60
2023-04-27T06:44:00.468Z,9.90
2023-04-27T06:46:27.428Z,10.20
2023-04-27T06:48:54.205Z,10.50
2023-04-27T06:51:20.838Z,10.90
2023-04-27T06:53:47.467Z,11.20
2023-04-27T06:56:14.132Z,11.60
2023-04-27T06:58:40.874Z,11.90
2023-04-27T07:01:07.660Z,12.30
2023-04-27T07:03:37.590Z,12.60
2023-04-27T07:06:04.613Z,13.10
2023-04-27T07:08:31.396Z,13.40
2023-04-27T07:10:58.180Z,13.80
2023-04-27T07:13:24.818Z,14.20
2023-04-27T07:15:57.969Z,14.60
2023-04-27T07:18:25.940Z,15.00
2023-04-27T07:20:52.614Z,15.30
2023-04-27T07:23:19.364Z,15.70
2023-04-27T07:25:46.309Z,16.00
2023-04-27T07:28:13.212Z,16.20
2023-04-27T07:30:40.549Z,16.50
2023-04-27T07:33:07.522Z,16.70
2023-04-27T07:35:34.239Z,16.90
2023-04-27T07:38:02.644Z,17.10
2023-04-27T07:40:30.750Z,17.30
2023-04-27T07:42:58.258Z,17.50
2023-04-27T07:45:31.894Z,17.60
2023-04-27T07:48:00.177Z,17.80
2023-04-27T07:50:28.430Z,18.00
2023-04-27T07:52:55.237Z,18.10
2023-04-27T07:55:23.493Z,18.30
2023-04-27T07:57:51.970Z,18.50
2023-04-27T08:00:19.118Z,18.70
2023-04-27T08:02:46.146Z,18.90
2023-04-27T08:05:16.706Z,19.10
2023-04-27T08:07:44.856Z,19.30
2023-04-27T08:10:12.270Z,19.50
2023-04-27T08:12:39.003Z,19.70
2023-04-27T08:15:07.463Z,19.90
2023-04-27T08:17:34.709Z,20.10
2023-04-27T08:20:01.532Z,20.40
2023-04-27T08:22:28.177Z,20.50
2023-04-27T08:24:54.844Z,20.80
2023-04-27T08:27:21.564Z,21.00
2023-04-27T08:29:48.932Z,21.50
2023-04-27T08:32:16.095Z,21.50
2023-04-27T08:34:44.799Z,21.80
2023-04-27T08:37:11.643Z,22.00
2023-04-27T08:39:38.475Z,22.40
2023-04-27T08:42:12.443Z,22.60
2023-04-27T08:44:43.365Z,22.80
2023-04-27T08:47:11.000Z,23.00
2023-04-27T08:49:38.604Z,23.20
2023-04-27T08:52:12.461Z,23.30
2023-04-27T08:54:39.142Z,23.40
2023-04-27T08:57:10.743Z,23.50
2023-04-27T08:59:37.671Z,23.60
2023-04-27T09:02:04.889Z,23.60
2023-04-27T09:04:41.834Z,23.60
2023-04-27T09:07:17.046Z,23.80
2023-04-27T09:09:44.983Z,23.80
2023-04-27T09:12:21.494Z,23.70
2023-04-27T09:15:03.990Z,23.70
2023-04-27T09:17:31.302Z,23.70
2023-04-27T09:20:10.149Z,23.80
2023-04-27T09:22:47.583Z,23.80
2023-04-27T09:25:28.921Z,23.90
2023-04-27T09:27:57.789Z,24.00
2023-04-27T09:30:25.585Z,24.00
2023-04-27T09:33:03.676Z,24.10
2023-04-27T09:35:32.510Z,24.20
2023-04-27T09:38:00.632Z,24.30
2023-04-27T09:40:32.094Z,24.40
2023-04-27T09:43:03.367Z,24.60
2023-04-27T09:45:30.403Z,24.70
2023-04-27T09:47:58.455Z,24.80
2023-04-27T09:50:25.783Z,24.90
2023-04-27T09:52:52.522Z,25.00
2023-04-27T09:55:25.560Z,25.20
2023-04-27T09:58:12.008Z,25.30
2023-04-27T10:01:18.796Z,25.50
2023-04-27T10:03:54.210Z,25.50
2023-04-27T10:06:53.700Z,25.70
2023-04-27T10:09:23.628Z,25.80
2023-04-27T10:11:52.321Z,25.90
2023-04-27T10:14:21.617Z,26.00
2023-04-27T10:16:56.459Z,26.20
2023-04-27T10:19:24.753Z,26.30
2023-04-27T10:22:03.474Z,26.40
2023-04-27T10:24:37.901Z,26.50
2023-04-27T10:27:09.533Z,26.70
2023-04-27T10:29:44.116Z,27.00
2023-04-27T10:32:25.134Z,26.90
2023-04-27T10:35:02.088Z,26.90
2023-04-27T10:37:39.964Z,26.80
2023-04-27T10:40:10.255Z,26.70
2023-04-27T10:42:37.040Z,26.50
2023-04-27T10:45:04.145Z,26.30
2023-04-27T10:47:42.260Z,26.00
2023-04-27T10:50:14.350Z,25.70
2023-04-27T10:52:46.092Z,25.30
2023-04-27T10:55:17.311Z,25.00
2023-04-27T10:57:55.274Z,24.60
2023-04-27T11:00:26.642Z,24.40
2023-04-27T11:02:54.961Z,23.90
2023-04-27T11:05:25.032Z,23.60
2023-04-27T11:07:52.832Z,23.30
2023-04-27T11:10:19.757Z,23.10
2023-04-27T11:12:46.765Z,22.80
2023-04-27T11:15:14.184Z,22.60
2023-04-27T11:17:41.425Z,22.40
2023-04-27T11:20:09.050Z,22.30
2023-04-27T11:22:46.071Z,21.90
2023-04-27T11:25:12.874Z,21.80
2023-04-27T11:27:40.933Z,21.60
2023-04-27T11:30:19.396Z,21.40
2023-04-27T11:32:46.182Z,21.30
2023-04-27T11:35:13.678Z,21.10
2023-04-27T11:37:40.606Z,21.00
2023-04-27T11:40:08.577Z,20.80
2023-04-27T11:42:35.706Z,20.70
2023-04-27T11:45:07.807Z,20.60
2023-04-27T11:47:35.846Z,20.40
2023-04-27T11:50:05.511Z,20.30
2023-04-27T11:52:33.590Z,20.20
2023-04-27T11:55:01.838Z,20.00
2023-04-27T11:57:30.427Z,19.90
2023-04-27T12:00:00.050Z,19.80
2023-04-27T12:02:28.641Z,19.70
2023-04-27T12:04:55.899Z,19.60
2023-04-27T12:07:22.718Z,19.50
2023-04-27T12:09:49.903Z,19.40
2023-04-27T12:12:22.144Z,19.30
2023-04-27T12:14:50.181Z,19.20
2023-04-27T12:17:17.241Z,19.30
2023-04-27T12:19:43.885Z,19.20
2023-04-27T12:22:11.034Z,19.20
2023-04-27T12:24:37.684Z,19.10
2023-04-27T12:27:05.100Z,19.00
2023-04-27T12:29:34.544Z,18.90
2023-04-27T12:32:01.399Z,18.90
2023-04-27T12:34:31.096Z,18.80
2023-04-27T12:36:57.804Z,18.70
2023-04-27T12:39:27.214Z,18.70
2023-04-27T12:41:54.231Z,18.60
2023-04-27T12:44:23.642Z,18.60
2023-04-27T12:46:50.599Z,18.50
2023-04-27T12:49:17.862Z,18.40
2023-04-27T12:51:45.540Z,18.40
2023-04-27T12:54:13.040Z,18.30
2023-04-27T12:56:39.993Z,18.30
2023-04-27T12:59:06.746Z,18.20
2023-04-27T13:01:33.843Z,18.10
2023-04-27T13:04:05.823Z,18.10
2023-04-27T13:06:32.993Z,18.10
2023-04-27T13:08:59.989Z,18.10
2023-04-27T13:11:27.222Z,18.00
2023-04-27T13:13:55.070Z,18.10
2023-04-27T13:16:24.937Z,18.00
2023-04-27T13:18:53.269Z,18.00
2023-04-27T13:21:20.407Z,18.00
2023-04-27T13:23:47.802Z,18.00
2023-04-27T13:26:15.820Z,18.00
2023-04-27T13:28:43.042Z,17.90
2023-04-27T13:31:10.075Z,17.90
2023-04-27T13:33:42.023Z,17.80
2023-04-27T13:36:12.748Z,17.80
2023-04-27T13:38:39.708Z,17.70
2023-04-27T13:41:06.868Z,17.60
2023-04-27T13:43:33.749Z,17.60
2023-04-27T13:46:01.806Z,17.50
2023-04-27T13:48:29.258Z,17.50
2023-04-27T13:50:56.345Z,17.50
2023-04-27T13:53:26.424Z,17.50
2023-04-27T13:55:54.983Z,17.50
2023-04-27T13:58:23.214Z,17.40
2023-04-27T14:00:52.748Z,17.40
2023-04-27T14:03:20.002Z,17.40
2023-04-27T14:05:48.765Z,17.40
2023-04-27T14:08:15.438Z,17.40
2023-04-27T14:10:42.133Z,17.30
2023-04-27T14:13:08.926Z,17.30
2023-04-27T14:15:37.280Z,17.30
2023-04-27T14:18:08.537Z,17.30
2023-04-27T14:20:36.785Z,17.30
2023-04-27T14:23:04.757Z,17.30
2023-04-27T14:25:35.181Z,17.40
2023-04-27T14:28:04.124Z,17.30
2023-04-27T14:30:35.228Z,17.30
2023-04-27T14:33:02.882Z,17.30
2023-04-27T14:35:29.961Z,17.30
2023-04-27T14:38:01.608Z,17.30
2023-04-27T14:40:32.212Z,17.20
2023-04-27T14:42:59.078Z,17.20
2023-04-27T14:45:30.903Z,17.20
2023-04-27T14:48:03.906Z,17.20
2023-04-27T14:50:30.682Z,17.20
2023-04-27T14:52:58.714Z,17.20
2023-04-27T14:55:25.407Z,17.20
2023-04-27T14:57:52.161Z,17.10
2023-04-27T15:00:19.082Z,17.10
2023-04-27T15:02:46.219Z,17.10
2023-04-27T15:05:12.974Z,17.10
2023-04-27T15:07:39.686Z,17.10
2023-04-27T15:10:07.131Z,17.10
2023-04-27T15:12:33.866Z,17.10
2023-04-27T15:15:00.955Z,17.30
2023-04-27T15:17:27.748Z,17.10
2023-04-27T15:19:54.677Z,17.10
2023-04-27T15:22:23.470Z,17.10
2023-04-27T15:24:50.856Z,17.10
2023-04-27T15:27:17.553Z,17.10
2023-04-27T15:29:44.155Z,17.10
2023-04-27T15:32:10.793Z,17.10
2023-04-27T15:34:37.506Z,17.10
2023-04-27T15:37:04.148Z,17.10
2023-04-27T15:39:30.987Z,17.10
2023-04-27T15:41:59.545Z,17.10
2023-04-27T15:44:26.899Z,17.10
2023-04-27T15:46:53.801Z,17.10
2023-04-27T15:49:20.923Z,17.10
2023-04-27T15:51:47.651Z,17.10
2023-04-27T15:54:14.269Z,17.00
2023-04-27T15:56:41.048Z,17.00
2023-04-27T15:59:08.001Z,17.20
2023-04-27T16:01:34.734Z,17.00
2023-04-27T16:04:01.488Z,17.00
2023-04-27T16:06:36.326Z,16.90
2023-04-27T16:09:03.999Z,16.90
2023-04-27T16:11:31.646Z,16.90
2023-04-27T16:13:59.340Z,16.90
2023-04-27T16:16:26.709Z,16.90
2023-04-27T16:18:53.515Z,16.90
2023-04-27T16:21:20.318Z,16.90
2023-04-27T16:23:47.038Z,16.80
2023-04-27T16:26:13.670Z,17.00
2023-04-27T16:28:41.074Z,16.80
2023-04-27T16:31:07.961Z,16.80
2023-04-27T16:33:34.714Z,16.80
2023-04-27T16:36:01.488Z,16.80
2023-04-27T16:38:28.157Z,16.80
2023-04-27T16:40:56.018Z,16.80
2023-04-27T16:43:22.745Z,16.70
2023-04-27T16:45:49.418Z,16.70
2023-04-27T16:48:16.358Z,16.70
2023-04-27T16:50:43.001Z,16.70
2023-04-27T16:53:13.507Z,16.70
2023-04-27T16:55:40.462Z,16.60
2023-04-27T16:58:07.566Z,16.60
2023-04-27T17:00:34.293Z,16.60
2023-04-27T17:03:01.057Z,16.50
2023-04-27T17:05:27.844Z,16.50
2023-04-27T17:07:54.487Z,16.40
2023-04-27T17:10:21.259Z,16.40
2023-04-27T17:12:47.970Z,16.40
2023-04-27T17:15:14.734Z,16.30
2023-04-27T17:17:41.449Z,16.30
2023-04-27T17:20:09.524Z,16.30
2023-04-27T17:22:36.650Z,16.20
2023-04-27T17:25:04.000Z,16.20
2023-04-27T17:27:30.815Z,16.20
2023-04-27T17:29:57.988Z,16.10
2023-04-27T17:32:24.746Z,16.10
2023-04-27T17:34:52.399Z,16.10
2023-04-27T17:37:19.026Z,16.10
2023-04-27T17:39:46.207Z,16.00
2023-04-27T17:42:12.911Z,16.00
2023-04-27T17:44:41.118Z,16.00
2023-04-27T17:47:08.385Z,15.90
2023-04-27T17:49:35.936Z,15.90
2023-04-27T17:52:03.022Z,15.90
2023-04-27T17:54:30.308Z,15.90
2023-04-27T17:56:57.197Z,15.80
2023-04-27T17:59:24.809Z,15.90
2023-04-27T18:01:51.532Z,15.80
2023-04-27T18:04:18.692Z,15.70
2023-04-27T18:06:45.540Z,15.70
2023-04-27T18:09:12.491Z,15.70
2023-04-27T18:11:39.408Z,15.60
2023-04-27T18:14:06.106Z,15.60
2023-04-27T18:16:32.937Z,15.50
2023-04-27T18:18:59.724Z,15.50
2023-04-27T18:21:28.249Z,15.50
2023-04-27T18:23:56.079Z,15.40
2023-04-27T18:26:22.969Z,15.40
2023-04-27T18:28:49.763Z,15.30
2023-04-27T18:31:17.304Z,15.30
2023-04-27T18:33:44.913Z,15.30
2023-04-27T18:36:11.928Z,15.20
2023-04-27T18:38:38.723Z,15.20
2023-04-27T18:41:05.599Z,15.20
2023-04-27T18:43:35.609Z,15.20
2023-04-27T18:46:03.127Z,15.10
2023-04-27T18:48:29.954Z,15.10
2023-04-27T18:50:56.841Z,15.20
2023-04-27T18:53:23.574Z,15.30
2023-04-27T18:55:50.276Z,15.10
2023-04-27T18:58:16.986Z,14.90
2023-04-27T19:00:43.673Z,14.90
2023-04-27T19:03:10.808Z,14.80
2023-04-27T19:05:40.787Z,14.80
2023-04-27T19:08:07.989Z,14.80
2023-04-27T19:10:34.850Z,14.80
2023-04-27T19:13:01.558Z,14.70
2023-04-27T19:15:28.352Z,14.70
2023-04-27T19:18:02.777Z,14.70
2023-04-27T19:20:36.540Z,14.60
2023-04-27T19:23:03.474Z,14.60
2023-04-27T19:25:30.159Z,14.50
2023-04-27T19:27:56.848Z,14.50
2023-04-27T19:30:23.608Z,14.50
2023-04-27T19:32:50.562Z,14.50
2023-04-27T19:35:18.582Z,14.40
2023-04-27T19:37:45.295Z,14.40
2023-04-27T19:40:12.344Z,14.30
2023-04-27T19:42:39.136Z,14.30
2023-04-27T19:45:06.910Z,14.30
2023-04-27T19:47:33.771Z,14.20
2023-04-27T19:50:00.456Z,14.20
2023-04-27T19:52:27.233Z,14.20
2023-04-27T19:54:54.493Z,14.10
2023-04-27T19:57:21.644Z,14.10
2023-04-27T19:59:48.474Z,14.10
2023-04-27T20:02:15.745Z,14.10
2023-04-27T20:04:43.058Z,14.00
2023-04-27T20:07:09.872Z,14.00
2023-04-27T20:09:36.721Z,14.00
2023-04-27T20:12:04.085Z,14.20
2023-04-27T20:14:33.504Z,13.90
2023-04-27T20:17:00.562Z,13.90
2023-04-27T20:19:27.214Z,13.90
2023-04-27T20:21:54.022Z,13.90
2023-04-27T20:24:20.744Z,13.80
2023-04-27T20:26:47.467Z,13.80
2023-04-27T20:29:14.342Z,13.80
2023-04-27T20:31:41.207Z,13.80
2023-04-27T20:34:07.977Z,13.70
2023-04-27T20:36:34.616Z,13.70
2023-04-27T20:39:01.298Z,13.70
2023-04-27T20:41:28.401Z,13.60
2023-04-27T20:43:55.347Z,13.60
2023-04-27T20:46:22.123Z,13.60
2023-04-27T20:48:48.738Z,13.60
2023-04-27T20:51:15.356Z,13.50
2023-04-27T20:53:42.016Z,13.50
2023-04-27T20:56:09.057Z,13.50
2023-04-27T20:58:36.017Z,13.40
2023-04-27T21:01:02.742Z,13.40
2023-04-27T21:03:29.626Z,13.40
2023-04-27T21:05:56.385Z,13.30
2023-04-27T21:08:23.020Z,13.40
2023-04-27T21:10:49.903Z,13.30
2023-04-27T21:13:16.555Z,13.30
2023-04-27T21:15:43.215Z,13.30
2023-04-27T21:18:18.916Z,13.30
2023-04-27T21:20:55.460Z,13.20
2023-04-27T21:23:22.140Z,13.20
2023-04-27T21:25:48.776Z,13.20
2023-04-27T21:28:15.472Z,13.20
2023-04-27T21:30:42.182Z,13.10
2023-04-27T21:33:08.992Z,13.10
2023-04-27T21:35:36.094Z,13.10
2023-04-27T21:38:02.792Z,13.10
2023-04-27T21:40:29.554Z,13.10
2023-04-27T21:42:56.426Z,13.00
2023-04-27T21:45:23.274Z,13.00
2023-04-27T21:47:50.001Z,13.00
2023-04-27T21:50:16.782Z,13.00
2023-04-27T21:52:43.502Z,12.90
2023-04-27T21:55:10.915Z,12.90
2023-04-27T21:57:37.817Z,12.90
2023-04-27T22:00:13.049Z,12.90
2023-04-27T22:02:44.634Z,12.90
2023-04-27T22:05:11.718Z,12.80
2023-04-27T22:07:38.416Z,12.80
2023-04-27T22:10:05.725Z,12.80
2023-04-27T22:12:33.392Z,12.70
2023-04-27T22:15:00.364Z,12.70
2023-04-27T22:17:27.626Z,12.70
2023-04-27T22:19:54.677Z,12.70
2023-04-27T22:22:21.537Z,12.70
2023-04-27T22:24:48.580Z,12.70
2023-04-27T22:27:15.592Z,12.60
2023-04-27T22:29:42.233Z,12.60
2023-04-27T22:32:09.750Z,12.60
2023-04-27T22:34:37.186Z,12.60
2023-04-27T22:37:04.035Z,12.60
2023-04-27T22:39:31.623Z,12.50
2023-04-27T22:41:58.337Z,12.50
2023-04-27T22:44:25.770Z,12.50
2023-04-27T22:46:52.718Z,12.50
2023-04-27T22:49:19.515Z,12.50
2023-04-27T22:51:47.110Z,12.50
2023-04-27T22:54:14.618Z,12.40
2023-04-27T22:56:41.621Z,12.60
2023-04-27T22:59:09.416Z,12.40
2023-04-27T23:01:36.173Z,12.40
2023-04-27T23:04:03.132Z,12.40
2023-04-27T23:06:30.222Z,12.30
2023-04-27T23:08:57.220Z,12.30
2023-04-27T23:11:23.906Z,12.30
2023-04-27T23:13:50.679Z,12.30
2023-04-27T23:16:17.409Z,12.30
2023-04-27T23:18:44.302Z,12.20
2023-04-27T23:21:11.513Z,12.20
2023-04-27T23:23:38.288Z,12.20
2023-04-27T23:26:15.012Z,12.20
2023-04-27T23:28:42.510Z,12.10
2023-04-27T23:31:09.797Z,12.20
2023-04-27T23:33:36.778Z,12.10
2023-04-27T23:36:04.447Z,12.10
2023-04-27T23:38:31.431Z,12.10
2023-04-27T23:43:45.522Z,12.10
2023-04-27T23:46:12.559Z,12.10
2023-04-27T23:48:39.297Z,12.10
2023-04-27T23:51:06.083Z,12.00
2023-04-27T23:53:32.762Z,12.00
2023-04-27T23:55:59.416Z,12.00
2023-04-27T23:58:26.661Z,12.00
